sensor_id;sensor_type;location;lat;lon;timestamp;P1;durP1;ratioP1;P2;durP2;ratioP2
27746;SDS011;15138;51.012;4.692;2024-03-06T00:02:13;12.05;;;6.40;;
27746;SDS011;15138;51.012;4.692;2024-03-06T00:04:41;11.30;;;6.43;;
27746;SDS011;15138;51.012;4.692;2024-03-06T00:07:10;9.70;;;5.80;;
27746;SDS011;15138;51.012;4.692;2024-03-06T00:09:40;10.50;;;6.22;;
27746;SDS011;15138;51.012;4.692;2024-03-06T00:12:09;12.27;;;5.95;;
27746;SDS011;15138;51.012;4.692;2024-03-06T00:14:37;13.95;;;6.13;;
27746;SDS011;15138;51.012;4.692;2024-03-06T00:17:05;9.63;;;5.95;;
27746;SDS011;15138;51.012;4.692;2024-03-06T00:19:34;10.30;;;5.72;;
27746;SDS011;15138;51.012;4.692;2024-03-06T00:22:02;14.00;;;6.10;;
27746;SDS011;15138;51.012;4.692;2024-03-06T00:24:30;9.45;;;5.25;;
27746;SDS011;15138;51.012;4.692;2024-03-06T00:27:00;7.55;;;5.00;;
27746;SDS011;15138;51.012;4.692;2024-03-06T00:29:30;11.35;;;6.40;;
27746;SDS011;15138;51.012;4.692;2024-03-06T00:31:58;13.43;;;6.47;;
27746;SDS011;15138;51.012;4.692;2024-03-06T00:34:27;9.80;;;6.10;;
27746;SDS011;15138;51.012;4.692;2024-03-06T00:36:55;8.07;;;5.13;;
27746;SDS011;15138;51.012;4.692;2024-03-06T00:39:23;6.78;;;4.40;;
27746;SDS011;15138;51.012;4.692;2024-03-06T00:41:52;8.70;;;5.50;;
27746;SDS011;15138;51.012;4.692;2024-03-06T00:44:22;8.85;;;5.45;;
27746;SDS011;15138;51.012;4.692;2024-03-06T00:46:50;10.70;;;6.63;;
27746;SDS011;15138;51.012;4.692;2024-03-06T00:49:18;13.32;;;8.80;;
27746;SDS011;15138;51.012;4.692;2024-03-06T00:51:46;10.40;;;6.47;;
27746;SDS011;15138;51.012;4.692;2024-03-06T00:54:15;11.82;;;6.45;;
27746;SDS011;15138;51.012;4.692;2024-03-06T00:56:43;9.77;;;5.70;;
27746;SDS011;15138;51.012;4.692;2024-03-06T00:59:12;8.32;;;5.35;;
27746;SDS011;15138;51.012;4.692;2024-03-06T01:01:41;8.63;;;4.85;;
27746;SDS011;15138;51.012;4.692;2024-03-06T01:04:10;8.38;;;4.88;;
27746;SDS011;15138;51.012;4.692;2024-03-06T01:06:38;8.77;;;4.80;;
27746;SDS011;15138;51.012;4.692;2024-03-06T01:09:06;7.75;;;3.85;;
27746;SDS011;15138;51.012;4.692;2024-03-06T01:11:34;7.40;;;4.50;;
27746;SDS011;15138;51.012;4.692;2024-03-06T01:14:03;9.13;;;4.28;;
27746;SDS011;15138;51.012;4.692;2024-03-06T01:16:31;8.40;;;4.55;;
27746;SDS011;15138;51.012;4.692;2024-03-06T01:19:01;6.50;;;4.28;;
27746;SDS011;15138;51.012;4.692;2024-03-06T01:21:31;10.18;;;4.88;;
27746;SDS011;15138;51.012;4.692;2024-03-06T01:24:00;10.65;;;5.40;;
27746;SDS011;15138;51.012;4.692;2024-03-06T01:26:29;7.65;;;4.15;;
27746;SDS011;15138;51.012;4.692;2024-03-06T01:28:57;5.30;;;3.75;;
27746;SDS011;15138;51.012;4.692;2024-03-06T01:31:26;7.25;;;4.28;;
27746;SDS011;15138;51.012;4.692;2024-03-06T01:33:54;6.72;;;4.20;;
27746;SDS011;15138;51.012;4.692;2024-03-06T01:36:23;9.73;;;5.50;;
27746;SDS011;15138;51.012;4.692;2024-03-06T01:38:52;8.18;;;4.72;;
27746;SDS011;15138;51.012;4.692;2024-03-06T01:41:20;6.25;;;3.90;;
27746;SDS011;15138;51.012;4.692;2024-03-06T01:43:48;8.77;;;5.70;;
27746;SDS011;15138;51.012;4.692;2024-03-06T01:46:16;6.13;;;4.53;;
27746;SDS011;15138;51.012;4.692;2024-03-06T01:48:44;6.78;;;3.72;;
27746;SDS011;15138;51.012;4.692;2024-03-06T01:51:13;5.00;;;3.78;;
27746;SDS011;15138;51.012;4.692;2024-03-06T01:53:42;5.13;;;3.47;;
27746;SDS011;15138;51.012;4.692;2024-03-06T01:56:11;6.57;;;3.78;;
27746;SDS011;15138;51.012;4.692;2024-03-06T01:58:44;6.85;;;4.07;;
27746;SDS011;15138;51.012;4.692;2024-03-06T02:01:14;8.25;;;5.20;;
27746;SDS011;15138;51.012;4.692;2024-03-06T02:03:45;8.63;;;4.10;;
27746;SDS011;15138;51.012;4.692;2024-03-06T02:06:14;10.52;;;4.57;;
27746;SDS011;15138;51.012;4.692;2024-03-06T02:08:47;7.60;;;4.32;;
27746;SDS011;15138;51.012;4.692;2024-03-06T02:11:15;9.45;;;4.97;;
27746;SDS011;15138;51.012;4.692;2024-03-06T02:13:44;9.73;;;4.95;;
27746;SDS011;15138;51.012;4.692;2024-03-06T02:16:12;9.25;;;4.88;;
27746;SDS011;15138;51.012;4.692;2024-03-06T02:18:50;8.20;;;5.25;;
27746;SDS011;15138;51.012;4.692;2024-03-06T02:21:21;9.25;;;4.47;;
27746;SDS011;15138;51.012;4.692;2024-03-06T02:23:50;7.50;;;4.10;;
27746;SDS011;15138;51.012;4.692;2024-03-06T02:26:18;9.55;;;4.88;;
27746;SDS011;15138;51.012;4.692;2024-03-06T02:28:48;6.75;;;3.90;;
27746;SDS011;15138;51.012;4.692;2024-03-06T02:31:17;5.60;;;4.07;;
27746;SDS011;15138;51.012;4.692;2024-03-06T02:33:46;7.50;;;4.28;;
27746;SDS011;15138;51.012;4.692;2024-03-06T02:36:15;5.20;;;3.22;;
27746;SDS011;15138;51.012;4.692;2024-03-06T02:38:45;6.72;;;3.00;;
27746;SDS011;15138;51.012;4.692;2024-03-06T02:41:15;4.80;;;3.40;;
27746;SDS011;15138;51.012;4.692;2024-03-06T02:43:44;7.55;;;4.68;;
27746;SDS011;15138;51.012;4.692;2024-03-06T02:46:12;5.80;;;3.47;;
27746;SDS011;15138;51.012;4.692;2024-03-06T02:48:40;5.65;;;3.90;;
27746;SDS011;15138;51.012;4.692;2024-03-06T02:51:08;6.13;;;3.72;;
27746;SDS011;15138;51.012;4.692;2024-03-06T02:53:37;5.40;;;3.58;;
27746;SDS011;15138;51.012;4.692;2024-03-06T02:56:07;4.57;;;2.95;;
27746;SDS011;15138;51.012;4.692;2024-03-06T02:58:35;4.72;;;3.20;;
27746;SDS011;15138;51.012;4.692;2024-03-06T03:01:03;4.18;;;3.33;;
27746;SDS011;15138;51.012;4.692;2024-03-06T03:03:32;6.80;;;3.88;;
27746;SDS011;15138;51.012;4.692;2024-03-06T03:06:00;5.53;;;3.42;;
27746;SDS011;15138;51.012;4.692;2024-03-06T03:08:28;3.72;;;2.88;;
27746;SDS011;15138;51.012;4.692;2024-03-06T03:10:57;4.97;;;3.35;;
27746;SDS011;15138;51.012;4.692;2024-03-06T03:13:26;7.13;;;4.32;;
27746;SDS011;15138;51.012;4.692;2024-03-06T03:15:54;5.45;;;3.10;;
27746;SDS011;15138;51.012;4.692;2024-03-06T03:18:22;4.10;;;2.90;;
27746;SDS011;15138;51.012;4.692;2024-03-06T03:20:51;6.32;;;3.67;;
27746;SDS011;15138;51.012;4.692;2024-03-06T03:23:19;4.63;;;3.03;;
27746;SDS011;15138;51.012;4.692;2024-03-06T03:25:49;5.60;;;3.30;;
27746;SDS011;15138;51.012;4.692;2024-03-06T03:28:17;6.50;;;3.55;;
27746;SDS011;15138;51.012;4.692;2024-03-06T03:30:46;4.88;;;3.60;;
27746;SDS011;15138;51.012;4.692;2024-03-06T03:33:14;6.13;;;3.45;;
27746;SDS011;15138;51.012;4.692;2024-03-06T03:35:43;7.70;;;3.60;;
27746;SDS011;15138;51.012;4.692;2024-03-06T03:38:11;4.47;;;3.20;;
27746;SDS011;15138;51.012;4.692;2024-03-06T03:40:39;5.68;;;3.33;;
27746;SDS011;15138;51.012;4.692;2024-03-06T03:43:08;5.25;;;3.38;;
27746;SDS011;15138;51.012;4.692;2024-03-06T03:45:36;4.85;;;3.17;;
27746;SDS011;15138;51.012;4.692;2024-03-06T03:48:06;5.50;;;3.13;;
27746;SDS011;15138;51.012;4.692;2024-03-06T03:50:34;5.65;;;3.40;;
27746;SDS011;15138;51.012;4.692;2024-03-06T03:53:03;4.55;;;3.15;;
27746;SDS011;15138;51.012;4.692;2024-03-06T03:55:31;6.32;;;3.40;;
27746;SDS011;15138;51.012;4.692;2024-03-06T03:57:59;4.25;;;3.05;;
27746;SDS011;15138;51.012;4.692;2024-03-06T04:00:28;4.82;;;2.97;;
27746;SDS011;15138;51.012;4.692;2024-03-06T04:02:57;5.00;;;2.90;;
27746;SDS011;15138;51.012;4.692;2024-03-06T04:05:27;8.25;;;3.65;;
27746;SDS011;15138;51.012;4.692;2024-03-06T04:07:55;4.28;;;2.72;;
27746;SDS011;15138;51.012;4.692;2024-03-06T04:10:23;4.15;;;2.90;;
27746;SDS011;15138;51.012;4.692;2024-03-06T04:12:51;4.47;;;3.03;;
27746;SDS011;15138;51.012;4.692;2024-03-06T04:15:21;4.75;;;2.53;;
27746;SDS011;15138;51.012;4.692;2024-03-06T04:17:49;4.03;;;2.70;;
27746;SDS011;15138;51.012;4.692;2024-03-06T04:20:19;5.22;;;2.85;;
27746;SDS011;15138;51.012;4.692;2024-03-06T04:22:48;4.97;;;3.00;;
27746;SDS011;15138;51.012;4.692;2024-03-06T04:25:18;4.18;;;2.97;;
27746;SDS011;15138;51.012;4.692;2024-03-06T04:27:46;3.88;;;2.55;;
27746;SDS011;15138;51.012;4.692;2024-03-06T04:30:14;4.25;;;2.72;;
27746;SDS011;15138;51.012;4.692;2024-03-06T04:32:43;4.25;;;3.22;;
27746;SDS011;15138;51.012;4.692;2024-03-06T04:35:11;6.53;;;2.53;;
27746;SDS011;15138;51.012;4.692;2024-03-06T04:37:40;4.38;;;2.97;;
27746;SDS011;15138;51.012;4.692;2024-03-06T04:40:09;4.80;;;2.90;;
27746;SDS011;15138;51.012;4.692;2024-03-06T04:42:41;1.30;;;1.20;;
27746;SDS011;15138;51.012;4.692;2024-03-06T04:45:10;3.75;;;2.35;;
27746;SDS011;15138;51.012;4.692;2024-03-06T04:47:39;3.88;;;2.28;;
27746;SDS011;15138;51.012;4.692;2024-03-06T04:50:08;2.45;;;1.92;;
27746;SDS011;15138;51.012;4.692;2024-03-06T04:52:37;4.22;;;2.20;;
27746;SDS011;15138;51.012;4.692;2024-03-06T04:55:06;3.65;;;2.60;;
27746;SDS011;15138;51.012;4.692;2024-03-06T04:57:37;2.70;;;2.22;;
27746;SDS011;15138;51.012;4.692;2024-03-06T05:00:07;3.70;;;2.72;;
27746;SDS011;15138;51.012;4.692;2024-03-06T05:02:36;5.40;;;3.25;;
27746;SDS011;15138;51.012;4.692;2024-03-06T05:08:08;5.55;;;3.63;;
27746;SDS011;15138;51.012;4.692;2024-03-06T05:10:54;4.82;;;3.15;;
27746;SDS011;15138;51.012;4.692;2024-03-06T05:16:26;7.32;;;3.78;;
27746;SDS011;15138;51.012;4.692;2024-03-06T05:19:12;5.65;;;3.28;;
27746;SDS011;15138;51.012;4.692;2024-03-06T05:24:43;6.07;;;3.38;;
27746;SDS011;15138;51.012;4.692;2024-03-06T05:27:29;5.65;;;3.40;;
27746;SDS011;15138;51.012;4.692;2024-03-06T05:30:17;5.00;;;3.35;;
27746;SDS011;15138;51.012;4.692;2024-03-06T05:33:02;4.97;;;2.95;;
27746;SDS011;15138;51.012;4.692;2024-03-06T05:35:48;5.38;;;3.47;;
27746;SDS011;15138;51.012;4.692;2024-03-06T05:38:34;5.43;;;3.10;;
27746;SDS011;15138;51.012;4.692;2024-03-06T05:41:20;5.93;;;3.05;;
27746;SDS011;15138;51.012;4.692;2024-03-06T05:44:06;3.92;;;3.00;;
27746;SDS011;15138;51.012;4.692;2024-03-06T05:46:53;4.18;;;3.17;;
27746;SDS011;15138;51.012;4.692;2024-03-06T05:49:39;4.28;;;2.80;;
27746;SDS011;15138;51.012;4.692;2024-03-06T05:52:25;5.03;;;2.83;;
27746;SDS011;15138;51.012;4.692;2024-03-06T05:57:56;4.15;;;2.63;;
27746;SDS011;15138;51.012;4.692;2024-03-06T06:00:36;4.78;;;2.70;;
27746;SDS011;15138;51.012;4.692;2024-03-06T06:03:07;3.92;;;2.65;;
27746;SDS011;15138;51.012;4.692;2024-03-06T06:05:38;4.30;;;2.83;;
27746;SDS011;15138;51.012;4.692;2024-03-06T06:08:07;4.70;;;3.10;;
27746;SDS011;15138;51.012;4.692;2024-03-06T06:10:35;4.40;;;2.53;;
27746;SDS011;15138;51.012;4.692;2024-03-06T06:13:04;3.00;;;2.30;;
27746;SDS011;15138;51.012;4.692;2024-03-06T06:15:32;4.78;;;3.10;;
27746;SDS011;15138;51.012;4.692;2024-03-06T06:18:00;3.83;;;2.45;;
27746;SDS011;15138;51.012;4.692;2024-03-06T06:20:30;3.75;;;2.70;;
27746;SDS011;15138;51.012;4.692;2024-03-06T06:22:58;4.53;;;2.70;;
27746;SDS011;15138;51.012;4.692;2024-03-06T06:25:26;7.00;;;4.60;;
27746;SDS011;15138;51.012;4.692;2024-03-06T06:27:54;7.07;;;4.95;;
27746;SDS011;15138;51.012;4.692;2024-03-06T06:30:23;7.50;;;4.28;;
27746;SDS011;15138;51.012;4.692;2024-03-06T06:32:51;8.27;;;4.43;;
27746;SDS011;15138;51.012;4.692;2024-03-06T06:35:20;10.85;;;5.18;;
27746;SDS011;15138;51.012;4.692;2024-03-06T06:37:50;6.97;;;4.00;;
27746;SDS011;15138;51.012;4.692;2024-03-06T06:40:18;4.60;;;3.40;;
27746;SDS011;15138;51.012;4.692;2024-03-06T06:42:47;7.15;;;3.97;;
27746;SDS011;15138;51.012;4.692;2024-03-06T06:45:17;23.08;;;8.18;;
27746;SDS011;15138;51.012;4.692;2024-03-06T06:47:46;39.20;;;13.38;;
27746;SDS011;15138;51.012;4.692;2024-03-06T06:50:15;37.85;;;12.55;;
27746;SDS011;15138;51.012;4.692;2024-03-06T06:52:43;60.03;;;16.90;;
27746;SDS011;15138;51.012;4.692;2024-03-06T06:55:13;55.65;;;16.25;;
27746;SDS011;15138;51.012;4.692;2024-03-06T06:57:41;54.50;;;16.55;;
27746;SDS011;15138;51.012;4.692;2024-03-06T07:00:10;52.65;;;16.13;;
27746;SDS011;15138;51.012;4.692;2024-03-06T07:02:39;47.75;;;15.77;;
27746;SDS011;15138;51.012;4.692;2024-03-06T07:05:08;57.97;;;16.15;;
27746;SDS011;15138;51.012;4.692;2024-03-06T07:07:37;46.08;;;14.63;;
27746;SDS011;15138;51.012;4.692;2024-03-06T07:10:06;38.88;;;13.88;;
27746;SDS011;15138;51.012;4.692;2024-03-06T07:12:36;31.38;;;12.27;;
27746;SDS011;15138;51.012;4.692;2024-03-06T07:15:05;31.27;;;11.07;;
27746;SDS011;15138;51.012;4.692;2024-03-06T07:17:33;27.40;;;11.07;;
27746;SDS011;15138;51.012;4.692;2024-03-06T07:20:02;22.58;;;11.25;;
27746;SDS011;15138;51.012;4.692;2024-03-06T07:22:32;26.45;;;12.15;;
27746;SDS011;15138;51.012;4.692;2024-03-06T07:25:01;25.48;;;12.50;;
27746;SDS011;15138;51.012;4.692;2024-03-06T07:27:31;27.63;;;12.95;;
27746;SDS011;15138;51.012;4.692;2024-03-06T07:30:01;24.70;;;12.82;;
27746;SDS011;15138;51.012;4.692;2024-03-06T07:32:29;29.23;;;13.82;;
27746;SDS011;15138;51.012;4.692;2024-03-06T07:34:58;31.92;;;15.45;;
27746;SDS011;15138;51.012;4.692;2024-03-06T07:37:26;31.27;;;15.75;;
27746;SDS011;15138;51.012;4.692;2024-03-06T07:39:55;33.28;;;16.75;;
27746;SDS011;15138;51.012;4.692;2024-03-06T07:42:23;32.47;;;16.65;;
27746;SDS011;15138;51.012;4.692;2024-03-06T07:44:51;26.98;;;15.02;;
27746;SDS011;15138;51.012;4.692;2024-03-06T07:47:21;25.15;;;14.02;;
27746;SDS011;15138;51.012;4.692;2024-03-06T07:49:49;24.95;;;12.18;;
27746;SDS011;15138;51.012;4.692;2024-03-06T07:52:17;21.88;;;11.68;;
27746;SDS011;15138;51.012;4.692;2024-03-06T07:54:46;23.35;;;11.02;;
27746;SDS011;15138;51.012;4.692;2024-03-06T07:57:14;17.92;;;10.25;;
27746;SDS011;15138;51.012;4.692;2024-03-06T07:59:42;22.85;;;9.50;;
27746;SDS011;15138;51.012;4.692;2024-03-06T08:02:10;19.88;;;9.85;;
27746;SDS011;15138;51.012;4.692;2024-03-06T08:04:40;16.15;;;9.52;;
27746;SDS011;15138;51.012;4.692;2024-03-06T08:07:08;20.48;;;8.32;;
27746;SDS011;15138;51.012;4.692;2024-03-06T08:09:36;18.17;;;8.45;;
27746;SDS011;15138;51.012;4.692;2024-03-06T08:12:05;16.40;;;8.38;;
27746;SDS011;15138;51.012;4.692;2024-03-06T08:14:33;13.93;;;7.57;;
27746;SDS011;15138;51.012;4.692;2024-03-06T08:17:02;16.45;;;8.13;;
27746;SDS011;15138;51.012;4.692;2024-03-06T08:19:30;18.00;;;7.95;;
27746;SDS011;15138;51.012;4.692;2024-03-06T08:22:00;15.70;;;8.23;;
27746;SDS011;15138;51.012;4.692;2024-03-06T08:24:32;23.13;;;7.55;;
27746;SDS011;15138;51.012;4.692;2024-03-06T08:27:00;12.30;;;7.53;;
27746;SDS011;15138;51.012;4.692;2024-03-06T08:29:29;12.00;;;6.95;;
27746;SDS011;15138;51.012;4.692;2024-03-06T08:31:58;13.50;;;6.72;;
27746;SDS011;15138;51.012;4.692;2024-03-06T08:34:27;12.00;;;6.13;;
27746;SDS011;15138;51.012;4.692;2024-03-06T08:36:56;17.08;;;7.45;;
27746;SDS011;15138;51.012;4.692;2024-03-06T08:39:26;16.70;;;7.82;;
27746;SDS011;15138;51.012;4.692;2024-03-06T08:41:55;15.20;;;6.78;;
27746;SDS011;15138;51.012;4.692;2024-03-06T08:44:24;17.67;;;8.07;;
27746;SDS011;15138;51.012;4.692;2024-03-06T08:46:52;12.55;;;6.45;;
27746;SDS011;15138;51.012;4.692;2024-03-06T08:49:20;15.10;;;7.45;;
27746;SDS011;15138;51.012;4.692;2024-03-06T08:51:49;13.27;;;6.10;;
27746;SDS011;15138;51.012;4.692;2024-03-06T08:54:17;13.27;;;6.90;;
27746;SDS011;15138;51.012;4.692;2024-03-06T08:56:47;11.77;;;6.28;;
27746;SDS011;15138;51.012;4.692;2024-03-06T08:59:15;16.33;;;6.30;;
27746;SDS011;15138;51.012;4.692;2024-03-06T09:01:43;10.27;;;5.75;;
27746;SDS011;15138;51.012;4.692;2024-03-06T09:04:11;10.65;;;5.53;;
27746;SDS011;15138;51.012;4.692;2024-03-06T09:06:43;11.27;;;6.38;;
27746;SDS011;15138;51.012;4.692;2024-03-06T09:09:11;13.60;;;5.60;;
27746;SDS011;15138;51.012;4.692;2024-03-06T09:11:41;12.68;;;6.00;;
27746;SDS011;15138;51.012;4.692;2024-03-06T09:14:11;9.10;;;5.40;;
27746;SDS011;15138;51.012;4.692;2024-03-06T09:16:39;11.05;;;5.40;;
27746;SDS011;15138;51.012;4.692;2024-03-06T09:19:08;11.77;;;5.60;;
27746;SDS011;15138;51.012;4.692;2024-03-06T09:21:36;10.60;;;5.00;;
27746;SDS011;15138;51.012;4.692;2024-03-06T09:24:04;10.43;;;5.28;;
27746;SDS011;15138;51.012;4.692;2024-03-06T09:26:33;10.93;;;4.88;;
27746;SDS011;15138;51.012;4.692;2024-03-06T09:29:01;8.60;;;4.78;;
27746;SDS011;15138;51.012;4.692;2024-03-06T09:31:31;11.50;;;4.90;;
27746;SDS011;15138;51.012;4.692;2024-03-06T09:34:00;9.07;;;4.90;;
27746;SDS011;15138;51.012;4.692;2024-03-06T09:36:28;9.43;;;4.25;;
27746;SDS011;15138;51.012;4.692;2024-03-06T09:38:56;8.88;;;5.07;;
27746;SDS011;15138;51.012;4.692;2024-03-06T09:41:24;9.43;;;5.30;;
27746;SDS011;15138;51.012;4.692;2024-03-06T09:43:53;13.20;;;4.40;;
27746;SDS011;15138;51.012;4.692;2024-03-06T09:46:22;9.82;;;4.15;;
27746;SDS011;15138;51.012;4.692;2024-03-06T09:48:51;7.60;;;4.47;;
27746;SDS011;15138;51.012;4.692;2024-03-06T09:51:20;7.97;;;3.13;;
27746;SDS011;15138;51.012;4.692;2024-03-06T09:53:48;6.40;;;3.10;;
27746;SDS011;15138;51.012;4.692;2024-03-06T09:56:18;6.05;;;2.83;;
27746;SDS011;15138;51.012;4.692;2024-03-06T09:58:47;7.40;;;3.13;;
27746;SDS011;15138;51.012;4.692;2024-03-06T10:01:15;6.35;;;2.65;;
27746;SDS011;15138;51.012;4.692;2024-03-06T10:03:45;7.55;;;3.65;;
27746;SDS011;15138;51.012;4.692;2024-03-06T10:06:15;6.18;;;2.85;;
27746;SDS011;15138;51.012;4.692;2024-03-06T10:08:43;5.45;;;2.60;;
27746;SDS011;15138;51.012;4.692;2024-03-06T10:11:12;5.47;;;2.67;;
27746;SDS011;15138;51.012;4.692;2024-03-06T10:13:41;3.63;;;2.55;;
27746;SDS011;15138;51.012;4.692;2024-03-06T10:16:09;5.93;;;2.80;;
27746;SDS011;15138;51.012;4.692;2024-03-06T10:18:40;4.95;;;2.30;;
27746;SDS011;15138;51.012;4.692;2024-03-06T10:21:09;4.70;;;2.38;;
27746;SDS011;15138;51.012;4.692;2024-03-06T10:23:38;7.55;;;2.95;;
27746;SDS011;15138;51.012;4.692;2024-03-06T10:26:07;4.43;;;2.13;;
27746;SDS011;15138;51.012;4.692;2024-03-06T10:28:36;3.90;;;1.98;;
27746;SDS011;15138;51.012;4.692;2024-03-06T10:31:05;5.43;;;2.58;;
27746;SDS011;15138;51.012;4.692;2024-03-06T10:33:35;3.38;;;2.08;;
27746;SDS011;15138;51.012;4.692;2024-03-06T10:36:04;4.07;;;1.98;;
27746;SDS011;15138;51.012;4.692;2024-03-06T10:38:34;6.43;;;2.45;;
27746;SDS011;15138;51.012;4.692;2024-03-06T10:41:06;6.95;;;2.22;;
27746;SDS011;15138;51.012;4.692;2024-03-06T10:43:41;3.08;;;2.03;;
27746;SDS011;15138;51.012;4.692;2024-03-06T10:46:12;3.85;;;1.70;;
27746;SDS011;15138;51.012;4.692;2024-03-06T10:48:41;5.25;;;1.70;;
27746;SDS011;15138;51.012;4.692;2024-03-06T10:51:11;4.00;;;1.52;;
27746;SDS011;15138;51.012;4.692;2024-03-06T10:53:41;4.60;;;1.80;;
27746;SDS011;15138;51.012;4.692;2024-03-06T10:56:12;2.85;;;1.55;;
27746;SDS011;15138;51.012;4.692;2024-03-06T10:58:41;2.58;;;1.50;;
27746;SDS011;15138;51.012;4.692;2024-03-06T11:01:10;2.40;;;1.40;;
27746;SDS011;15138;51.012;4.692;2024-03-06T11:03:39;5.05;;;1.58;;
27746;SDS011;15138;51.012;4.692;2024-03-06T11:06:08;4.47;;;1.60;;
27746;SDS011;15138;51.012;4.692;2024-03-06T11:08:36;4.10;;;2.17;;
27746;SDS011;15138;51.012;4.692;2024-03-06T11:11:21;3.00;;;1.67;;
27746;SDS011;15138;51.012;4.692;2024-03-06T11:13:54;1.80;;;1.10;;
27746;SDS011;15138;51.012;4.692;2024-03-06T11:16:27;1.83;;;1.00;;
27746;SDS011;15138;51.012;4.692;2024-03-06T11:19:06;2.65;;;1.30;;
27746;SDS011;15138;51.012;4.692;2024-03-06T11:24:13;3.85;;;1.40;;
27746;SDS011;15138;51.012;4.692;2024-03-06T11:26:44;2.92;;;1.00;;
27746;SDS011;15138;51.012;4.692;2024-03-06T11:29:17;3.40;;;1.08;;
27746;SDS011;15138;51.012;4.692;2024-03-06T11:32:02;3.25;;;1.13;;
27746;SDS011;15138;51.012;4.692;2024-03-06T11:34:33;2.72;;;1.20;;
27746;SDS011;15138;51.012;4.692;2024-03-06T11:37:05;0.90;;;0.70;;
27746;SDS011;15138;51.012;4.692;2024-03-06T11:39:37;2.75;;;1.00;;
27746;SDS011;15138;51.012;4.692;2024-03-06T11:42:11;2.13;;;1.05;;
27746;SDS011;15138;51.012;4.692;2024-03-06T11:44:51;2.03;;;1.00;;
27746;SDS011;15138;51.012;4.692;2024-03-06T11:47:21;2.83;;;1.13;;
27746;SDS011;15138;51.012;4.692;2024-03-06T11:49:50;2.78;;;1.10;;
27746;SDS011;15138;51.012;4.692;2024-03-06T11:52:20;2.50;;;1.20;;
27746;SDS011;15138;51.012;4.692;2024-03-06T11:54:49;1.55;;;0.90;;
27746;SDS011;15138;51.012;4.692;2024-03-06T11:57:22;3.30;;;1.25;;
27746;SDS011;15138;51.012;4.692;2024-03-06T11:59:51;1.67;;;1.00;;
27746;SDS011;15138;51.012;4.692;2024-03-06T12:02:21;3.10;;;1.20;;
27746;SDS011;15138;51.012;4.692;2024-03-06T12:04:50;1.73;;;0.77;;
27746;SDS011;15138;51.012;4.692;2024-03-06T12:07:20;2.30;;;1.00;;
27746;SDS011;15138;51.012;4.692;2024-03-06T12:09:48;1.48;;;0.85;;
27746;SDS011;15138;51.012;4.692;2024-03-06T12:12:17;1.50;;;1.10;;
27746;SDS011;15138;51.012;4.692;2024-03-06T12:14:56;1.65;;;1.10;;
27746;SDS011;15138;51.012;4.692;2024-03-06T12:17:25;3.92;;;1.10;;
27746;SDS011;15138;51.012;4.692;2024-03-06T12:19:55;3.10;;;1.23;;
27746;SDS011;15138;51.012;4.692;2024-03-06T12:22:24;1.83;;;1.10;;
27746;SDS011;15138;51.012;4.692;2024-03-06T12:24:57;2.15;;;1.10;;
27746;SDS011;15138;51.012;4.692;2024-03-06T12:27:26;1.83;;;1.15;;
27746;SDS011;15138;51.012;4.692;2024-03-06T12:29:54;2.42;;;0.90;;
27746;SDS011;15138;51.012;4.692;2024-03-06T12:32:25;2.33;;;1.30;;
27746;SDS011;15138;51.012;4.692;2024-03-06T12:34:57;2.78;;;1.20;;
27746;SDS011;15138;51.012;4.692;2024-03-06T12:37:30;2.67;;;0.75;;
27746;SDS011;15138;51.012;4.692;2024-03-06T12:40:00;2.40;;;1.10;;
27746;SDS011;15138;51.012;4.692;2024-03-06T12:42:30;4.03;;;1.08;;
27746;SDS011;15138;51.012;4.692;2024-03-06T12:44:59;1.63;;;1.10;;
27746;SDS011;15138;51.012;4.692;2024-03-06T12:47:30;2.03;;;1.10;;
27746;SDS011;15138;51.012;4.692;2024-03-06T12:49:59;2.35;;;1.15;;
27746;SDS011;15138;51.012;4.692;2024-03-06T12:52:27;1.45;;;0.80;;
27746;SDS011;15138;51.012;4.692;2024-03-06T12:54:56;2.00;;;0.98;;
27746;SDS011;15138;51.012;4.692;2024-03-06T12:57:25;1.85;;;0.93;;
27746;SDS011;15138;51.012;4.692;2024-03-06T12:59:54;2.03;;;1.02;;
27746;SDS011;15138;51.012;4.692;2024-03-06T13:02:22;2.00;;;0.70;;
27746;SDS011;15138;51.012;4.692;2024-03-06T13:04:52;2.03;;;0.80;;
27746;SDS011;15138;51.012;4.692;2024-03-06T13:07:20;4.60;;;2.22;;
27746;SDS011;15138;51.012;4.692;2024-03-06T13:09:48;1.27;;;0.90;;
27746;SDS011;15138;51.012;4.692;2024-03-06T13:12:17;2.15;;;0.75;;
27746;SDS011;15138;51.012;4.692;2024-03-06T13:14:45;2.38;;;0.80;;
27746;SDS011;15138;51.012;4.692;2024-03-06T13:17:14;1.40;;;0.82;;
27746;SDS011;15138;51.012;4.692;2024-03-06T13:19:42;3.95;;;1.20;;
27746;SDS011;15138;51.012;4.692;2024-03-06T13:22:11;1.48;;;1.05;;
27746;SDS011;15138;51.012;4.692;2024-03-06T13:24:40;3.08;;;1.23;;
27746;SDS011;15138;51.012;4.692;2024-03-06T13:27:10;1.33;;;0.90;;
27746;SDS011;15138;51.012;4.692;2024-03-06T13:29:39;1.65;;;1.10;;
27746;SDS011;15138;51.012;4.692;2024-03-06T13:32:07;1.70;;;0.77;;
27746;SDS011;15138;51.012;4.692;2024-03-06T13:34:35;3.50;;;1.00;;
27746;SDS011;15138;51.012;4.692;2024-03-06T13:37:03;2.17;;;1.10;;
27746;SDS011;15138;51.012;4.692;2024-03-06T13:39:34;2.78;;;1.10;;
27746;SDS011;15138;51.012;4.692;2024-03-06T13:42:03;3.63;;;1.30;;
27746;SDS011;15138;51.012;4.692;2024-03-06T13:44:32;3.88;;;1.23;;
27746;SDS011;15138;51.012;4.692;2024-03-06T13:47:00;2.88;;;1.00;;
27746;SDS011;15138;51.012;4.692;2024-03-06T13:49:36;1.98;;;0.88;;
27746;SDS011;15138;51.012;4.692;2024-03-06T13:52:06;2.58;;;0.73;;
27746;SDS011;15138;51.012;4.692;2024-03-06T13:54:38;1.90;;;0.95;;
27746;SDS011;15138;51.012;4.692;2024-03-06T13:57:07;2.40;;;0.70;;
27746;SDS011;15138;51.012;4.692;2024-03-06T13:59:36;1.92;;;0.90;;
27746;SDS011;15138;51.012;4.692;2024-03-06T14:02:05;2.67;;;0.98;;
27746;SDS011;15138;51.012;4.692;2024-03-06T14:04:34;2.33;;;0.73;;
27746;SDS011;15138;51.012;4.692;2024-03-06T14:07:03;7.32;;;2.00;;
27746;SDS011;15138;51.012;4.692;2024-03-06T14:09:32;4.30;;;1.67;;
27746;SDS011;15138;51.012;4.692;2024-03-06T14:12:02;2.17;;;0.90;;
27746;SDS011;15138;51.012;4.692;2024-03-06T14:14:30;1.73;;;0.73;;
27746;SDS011;15138;51.012;4.692;2024-03-06T14:16:59;1.65;;;1.10;;
27746;SDS011;15138;51.012;4.692;2024-03-06T14:19:27;2.00;;;0.88;;
27746;SDS011;15138;51.012;4.692;2024-03-06T14:21:55;2.03;;;1.15;;
27746;SDS011;15138;51.012;4.692;2024-03-06T14:24:29;2.03;;;0.90;;
27746;SDS011;15138;51.012;4.692;2024-03-06T14:26:57;2.88;;;0.85;;
27746;SDS011;15138;51.012;4.692;2024-03-06T14:29:27;3.33;;;0.90;;
27746;SDS011;15138;51.012;4.692;2024-03-06T14:31:55;2.00;;;0.90;;
27746;SDS011;15138;51.012;4.692;2024-03-06T14:34:23;1.52;;;0.88;;
27746;SDS011;15138;51.012;4.692;2024-03-06T14:36:52;2.13;;;0.93;;
27746;SDS011;15138;51.012;4.692;2024-03-06T14:39:20;2.70;;;0.85;;
27746;SDS011;15138;51.012;4.692;2024-03-06T14:41:50;2.92;;;1.00;;
27746;SDS011;15138;51.012;4.692;2024-03-06T14:44:19;2.08;;;0.80;;
27746;SDS011;15138;51.012;4.692;2024-03-06T14:46:49;1.40;;;0.77;;
27746;SDS011;15138;51.012;4.692;2024-03-06T14:49:17;2.60;;;0.80;;
27746;SDS011;15138;51.012;4.692;2024-03-06T14:51:45;2.40;;;0.82;;
27746;SDS011;15138;51.012;4.692;2024-03-06T14:54:13;2.33;;;1.00;;
27746;SDS011;15138;51.012;4.692;2024-03-06T14:56:42;2.65;;;1.00;;
27746;SDS011;15138;51.012;4.692;2024-03-06T14:59:10;3.88;;;1.13;;
27746;SDS011;15138;51.012;4.692;2024-03-06T15:01:39;2.97;;;1.10;;
27746;SDS011;15138;51.012;4.692;2024-03-06T15:04:08;2.05;;;0.82;;
27746;SDS011;15138;51.012;4.692;2024-03-06T15:06:37;1.70;;;1.00;;
27746;SDS011;15138;51.012;4.692;2024-03-06T15:09:06;1.52;;;0.95;;
27746;SDS011;15138;51.012;4.692;2024-03-06T15:11:38;4.10;;;0.85;;
27746;SDS011;15138;51.012;4.692;2024-03-06T15:14:07;2.83;;;0.90;;